createdAt,value
2023-04-26T00:00:29.374Z,10.00
2023-04-26T00:05:35.129Z,10.00
2023-04-26T00:10:42.491Z,9.90
2023-04-26T00:15:45.966Z,9.80
2023-04-26T00:20:48.868Z,9.90
2023-04-26T00:25:53.099Z,9.80
2023-04-26T00:30:57.844Z,9.80
2023-04-26T00:36:00.884Z,9.70
2023-04-26T00:41:05.535Z,9.70
2023-04-26T00:46:15.386Z,9.60
2023-04-26T00:51:18.411Z,9.40
2023-04-26T00:56:24.209Z,9.30
2023-04-26T01:01:27.164Z,9.20
2023-04-26T01:06:34.294Z,9.30
2023-04-26T01:11:39.153Z,9.30
2023-04-26T01:16:46.890Z,9.30
2023-04-26T01:21:50.121Z,9.10
2023-04-26T01:26:54.370Z,9.10
2023-04-26T01:31:57.245Z,9.10
2023-04-26T01:37:04.674Z,9.10
2023-04-26T01:42:08.895Z,9.20
2023-04-26T01:47:11.799Z,9.10
2023-04-26T01:52:14.711Z,9.10
2023-04-26T01:57:18.948Z,9.10
2023-04-26T02:02:21.845Z,9.00
2023-04-26T02:07:24.754Z,8.90
2023-04-26T02:12:33.896Z,8.90
2023-04-26T02:17:37.709Z,8.80
2023-04-26T02:22:40.630Z,8.80
2023-04-26T02:27:47.054Z,8.70
2023-04-26T02:32:50.077Z,8.30
2023-04-26T02:37:54.069Z,8.30
2023-04-26T02:42:58.596Z,8.40
2023-04-26T02:48:01.818Z,8.00
2023-04-26T02:53:04.836Z,7.80
2023-04-26T02:58:09.761Z,8.20
2023-04-26T03:03:13.072Z,8.00
2023-04-26T03:08:16.242Z,8.10
2023-04-26T03:13:20.467Z,8.30
2023-04-26T03:18:23.862Z,8.30
2023-04-26T03:23:27.023Z,7.90
2023-04-26T03:28:32.081Z,7.80
2023-04-26T03:33:35.015Z,7.70
2023-04-26T03:38:37.957Z,7.80
2023-04-26T03:43:42.737Z,7.80
2023-04-26T03:48:45.629Z,7.70
2023-04-26T03:53:49.328Z,8.00
2023-04-26T03:58:53.792Z,7.90
2023-04-26T04:03:57.408Z,7.70
2023-04-26T04:09:00.602Z,7.60
2023-04-26T04:14:04.909Z,7.40
2023-04-26T04:19:08.816Z,7.30
2023-04-26T04:24:11.839Z,7.40
2023-04-26T04:29:16.591Z,7.30
2023-04-26T04:34:19.902Z,7.10
2023-04-26T04:39:23.785Z,7.20
2023-04-26T04:44:28.465Z,7.10
2023-04-26T04:49:33.061Z,7.10
2023-04-26T04:54:36.303Z,7.10
2023-04-26T04:59:40.864Z,7.20
2023-04-26T05:04:44.110Z,7.30
2023-04-26T05:09:47.617Z,7.20
2023-04-26T05:14:51.978Z,7.20
2023-04-26T05:19:54.908Z,7.50
2023-04-26T05:24:58.270Z,7.60
2023-04-26T05:30:03.508Z,7.60
2023-04-26T05:35:20.263Z,7.80
2023-04-26T05:40:23.169Z,7.80
2023-04-26T05:45:27.613Z,7.70
2023-04-26T05:50:31.216Z,7.60
2023-04-26T05:55:34.146Z,7.70
2023-04-26T06:00:39.683Z,7.60
2023-04-26T06:05:43.597Z,7.80
2023-04-26T06:10:47.524Z,8.20
2023-04-26T06:15:51.895Z,8.30
2023-04-26T06:20:54.817Z,8.20
2023-04-26T06:25:57.758Z,8.20
2023-04-26T06:31:02.126Z,8.30
2023-04-26T06:36:07.226Z,8.40
2023-04-26T06:41:11.584Z,8.70
2023-04-26T06:46:15.960Z,8.60
2023-04-26T06:51:18.901Z,8.70
2023-04-26T06:56:21.874Z,8.60
2023-04-26T07:01:26.434Z,8.70
2023-04-26T07:06:29.383Z,8.80
2023-04-26T07:11:32.429Z,8.90
2023-04-26T07:16:36.688Z,9.10
2023-04-26T07:21:39.676Z,9.20
2023-04-26T07:26:42.608Z,9.40
2023-04-26T07:31:47.504Z,9.40
2023-04-26T07:36:50.410Z,9.60
2023-04-26T07:41:53.264Z,10.20
2023-04-26T07:46:57.457Z,10.10
2023-04-26T07:52:02.268Z,10.00
2023-04-26T07:57:05.318Z,10.10
2023-04-26T08:02:09.548Z,10.60
2023-04-26T08:07:12.431Z,10.30
2023-04-26T08:12:15.905Z,10.30
2023-04-26T08:17:20.180Z,10.40
2023-04-26T08:22:23.108Z,10.50
2023-04-26T08:27:26.051Z,10.90
2023-04-26T08:32:30.762Z,11.10
2023-04-26T08:37:33.920Z,11.00
2023-04-26T08:42:41.376Z,11.50
2023-04-26T08:47:49.380Z,11.20
2023-04-26T08:52:53.046Z,11.70
2023-04-26T08:57:56.793Z,12.00
2023-04-26T09:03:01.463Z,12.00
2023-04-26T09:08:07.983Z,12.20
2023-04-26T09:13:11.374Z,11.90
2023-04-26T09:18:20.111Z,12.20
2023-04-26T09:23:23.240Z,12.20
2023-04-26T09:28:26.433Z,12.10
2023-04-26T09:33:30.939Z,12.20
2023-04-26T09:38:43.682Z,12.30
2023-04-26T09:43:46.565Z,12.60
2023-04-26T09:49:02.221Z,12.70
2023-04-26T09:54:05.175Z,12.30
2023-04-26T09:59:11.473Z,12.60
2023-04-26T10:04:16.056Z,12.70
2023-04-26T10:09:19.048Z,12.50
2023-04-26T10:14:21.993Z,12.50
2023-04-26T10:19:26.676Z,12.40
2023-04-26T10:24:29.690Z,12.40
2023-04-26T10:30:07.397Z,12.70
2023-04-26T10:35:13.345Z,12.80
2023-04-26T10:40:26.377Z,12.90
2023-04-26T10:45:30.405Z,13.30
2023-04-26T10:50:34.702Z,13.30
2023-04-26T10:55:41.651Z,13.60
2023-04-26T11:01:05.203Z,13.70
2023-04-26T11:06:13.784Z,13.60
2023-04-26T11:11:19.447Z,13.30
2023-04-26T11:16:26.688Z,13.30
2023-04-26T11:21:32.657Z,13.50
2023-04-26T11:26:36.569Z,13.80
2023-04-26T11:31:39.493Z,14.40
2023-04-26T11:36:46.403Z,14.30
2023-04-26T11:41:49.481Z,14.30
2023-04-26T11:46:53.001Z,14.00
2023-04-26T11:51:57.732Z,14.00
2023-04-26T11:57:01.348Z,14.20
2023-04-26T12:02:08.383Z,14.10
2023-04-26T12:07:12.768Z,14.30
2023-04-26T12:12:15.695Z,14.60
2023-04-26T12:17:18.586Z,14.90
2023-04-26T12:22:23.095Z,14.80
2023-04-26T12:27:26.028Z,15.00
2023-04-26T12:32:29.506Z,15.10
2023-04-26T12:37:34.333Z,15.00
2023-04-26T12:42:37.264Z,14.80
2023-04-26T12:47:40.205Z,14.80
2023-04-26T12:52:45.635Z,14.70
2023-04-26T12:57:48.638Z,15.00
2023-04-26T13:02:52.786Z,15.40
2023-04-26T13:07:57.326Z,15.60
2023-04-26T13:13:06.501Z,15.80
2023-04-26T13:18:18.524Z,15.70
2023-04-26T13:23:24.212Z,15.90
2023-04-26T13:28:30.312Z,15.90
2023-04-26T13:33:35.223Z,15.80
2023-04-26T13:38:39.666Z,15.80
2023-04-26T13:43:42.640Z,15.70
2023-04-26T13:48:45.552Z,15.80
2023-04-26T13:53:49.778Z,15.50
2023-04-26T13:58:56.341Z,15.40
2023-04-26T14:04:11.495Z,15.30
2023-04-26T14:09:18.775Z,15.30
2023-04-26T14:14:21.666Z,15.40
2023-04-26T14:19:26.121Z,15.30
2023-04-26T14:24:30.363Z,15.70
2023-04-26T14:29:33.420Z,15.80
2023-04-26T14:34:39.125Z,15.90
2023-04-26T14:39:44.425Z,16.10
2023-04-26T14:44:47.659Z,16.40
2023-04-26T14:49:50.580Z,16.50
2023-04-26T14:54:54.892Z,16.70
2023-04-26T15:00:02.779Z,16.80
2023-04-26T15:05:07.032Z,16.70
2023-04-26T15:10:11.422Z,16.70
2023-04-26T15:15:15.363Z,16.60
2023-04-26T15:20:18.664Z,16.30
2023-04-26T15:25:22.952Z,16.40
2023-04-26T15:30:30.336Z,16.50
2023-04-26T15:35:33.533Z,16.90
2023-04-26T15:40:38.307Z,16.40
2023-04-26T15:45:41.794Z,16.20
2023-04-26T15:50:45.070Z,16.20
2023-04-26T15:55:49.355Z,16.00
2023-04-26T16:00:52.825Z,16.20
2023-04-26T16:05:55.767Z,16.60
2023-04-26T16:11:01.657Z,16.40
2023-04-26T16:16:08.074Z,16.70
2023-04-26T16:21:12.395Z,16.70
2023-04-26T16:26:17.846Z,16.90
2023-04-26T16:31:22.534Z,17.10
2023-04-26T16:36:28.145Z,16.80
2023-04-26T16:41:34.467Z,16.60
2023-04-26T16:46:37.768Z,16.40
2023-04-26T16:51:42.011Z,16.30
2023-04-26T16:56:46.285Z,16.50
2023-04-26T17:01:50.563Z,16.30
2023-04-26T17:06:54.913Z,16.30
2023-04-26T17:12:00.465Z,16.60
2023-04-26T17:17:03.450Z,16.40
2023-04-26T17:22:07.209Z,16.30
2023-04-26T17:27:11.450Z,16.60
2023-04-26T17:32:14.404Z,16.90
2023-04-26T17:37:17.431Z,16.80
2023-04-26T17:42:21.989Z,16.80
2023-04-26T17:47:24.929Z,16.80
2023-04-26T17:52:27.946Z,16.90
2023-04-26T17:57:32.405Z,16.60
2023-04-26T18:02:36.298Z,16.40
2023-04-26T18:07:39.485Z,16.30
2023-04-26T18:12:43.774Z,16.30
2023-04-26T18:17:46.752Z,16.30
2023-04-26T18:22:49.758Z,16.30
2023-04-26T18:27:54.528Z,16.30
2023-04-26T18:32:57.509Z,16.40
2023-04-26T18:38:00.414Z,16.30
2023-04-26T18:43:04.685Z,16.20
2023-04-26T18:48:13.512Z,16.10
2023-04-26T18:53:16.668Z,16.00
2023-04-26T18:58:21.048Z,15.90
2023-04-26T19:03:24.395Z,15.80
2023-04-26T19:08:27.546Z,15.50
2023-04-26T19:13:32.941Z,15.50
2023-04-26T19:18:37.184Z,15.40
2023-04-26T19:23:40.153Z,15.30
2023-04-26T19:28:44.340Z,15.30
2023-04-26T19:33:47.244Z,15.00
2023-04-26T19:38:50.155Z,15.00
2023-04-26T19:43:54.436Z,15.00
2023-04-26T19:48:57.319Z,15.00
2023-04-26T19:54:00.196Z,15.00
2023-04-26T19:59:04.794Z,14.80
2023-04-26T20:04:08.060Z,14.90
2023-04-26T20:09:11.150Z,14.90
2023-04-26T20:14:16.537Z,14.70
2023-04-26T20:19:19.864Z,14.50
2023-04-26T20:24:24.041Z,14.50
2023-04-26T20:29:28.288Z,14.40
2023-04-26T20:34:31.268Z,14.30
2023-04-26T20:39:35.267Z,14.30
2023-04-26T20:44:39.500Z,13.90
2023-04-26T20:49:42.525Z,13.90
2023-04-26T20:54:46.254Z,13.70
2023-04-26T20:59:50.571Z,13.90
2023-04-26T21:04:53.632Z,14.20
2023-04-26T21:09:56.760Z,14.00
2023-04-26T21:15:01.318Z,13.90
2023-04-26T21:20:05.208Z,13.80
2023-04-26T21:25:08.866Z,13.80
2023-04-26T21:30:14.288Z,13.60
2023-04-26T21:35:17.300Z,13.40
2023-04-26T21:40:20.212Z,13.50
2023-04-26T21:45:24.524Z,13.50
2023-04-26T21:50:27.605Z,13.50
2023-04-26T21:55:30.618Z,13.50
2023-04-26T22:00:34.906Z,13.40
2023-04-26T22:05:38.028Z,13.40
2023-04-26T22:10:41.920Z,13.40
2023-04-26T22:15:46.216Z,13.30
2023-04-26T22:20:49.122Z,13.30
2023-04-26T22:25:52.365Z,13.30
2023-04-26T22:30:56.642Z,13.10
2023-04-26T22:35:59.587Z,13.00
2023-04-26T22:41:02.511Z,13.00
2023-04-26T22:46:06.831Z,13.00
2023-04-26T22:51:09.743Z,13.00
2023-04-26T22:56:12.680Z,13.00
2023-04-26T23:01:16.953Z,13.00
2023-04-26T23:06:19.968Z,12.90
2023-04-26T23:11:22.865Z,12.50
2023-04-26T23:16:27.578Z,12.30
2023-04-26T23:21:30.552Z,12.20
2023-04-26T23:26:33.773Z,12.40
2023-04-26T23:31:38.032Z,12.50
2023-04-26T23:36:41.252Z,12.60
2023-04-26T23:41:44.157Z,12.60
2023-04-26T23:46:48.443Z,12.60
2023-04-26T23:51:51.368Z,12.40
2023-04-26T23:56:54.239Z,12.00
